createdAt,value
2018-05-04T00:00:59.410Z,71.21
2018-05-04T00:03:26.862Z,71.67
2018-05-04T00:05:54.309Z,71.13
2018-05-04T00:08:22.670Z,70.82
2018-05-04T00:10:50.137Z,71.55
2018-05-04T00:13:17.572Z,72.32
2018-05-04T00:15:45.007Z,71.61
2018-05-04T00:18:12.462Z,71.93
2018-05-04T00:20:40.882Z,71.49
2018-05-04T00:23:08.334Z,71.04
2018-05-04T00:25:35.757Z,71.95
2018-05-04T00:28:04.160Z,71.81
2018-05-04T00:30:31.577Z,71.28
2018-05-04T00:32:59.022Z,70.71
2018-05-04T00:35:27.458Z,70.01
2018-05-04T00:37:54.911Z,71.62
2018-05-04T00:40:22.330Z,70.45
2018-05-04T00:42:49.761Z,70.43
2018-05-04T00:45:17.173Z,71.41
2018-05-04T00:47:44.621Z,71.88
2018-05-04T00:50:12.038Z,72.28
2018-05-04T00:52:39.465Z,72.37
2018-05-04T00:55:06.921Z,72.24
2018-05-04T00:57:34.347Z,71.71
2018-05-04T01:00:01.803Z,71.63
2018-05-04T01:02:29.215Z,71.76
2018-05-04T01:04:56.673Z,71.85
2018-05-04T01:07:24.094Z,72.18
2018-05-04T01:09:51.550Z,71.94
2018-05-04T01:12:18.974Z,71.35
2018-05-04T01:14:46.430Z,71.22
2018-05-04T01:17:13.837Z,71.53
2018-05-04T01:19:41.281Z,71.03
2018-05-04T01:22:08.711Z,71.03
2018-05-04T01:24:36.151Z,70.31
2018-05-04T01:27:03.558Z,70.23
2018-05-04T01:29:31.007Z,72.31
2018-05-04T01:31:58.426Z,73.26
2018-05-04T01:34:25.875Z,72.57
2018-05-04T01:36:53.290Z,71.70
2018-05-04T01:39:20.753Z,70.96
2018-05-04T01:41:48.194Z,71.45
2018-05-04T01:44:15.718Z,71.72
2018-05-04T01:46:44.154Z,70.42
2018-05-04T01:49:13.521Z,71.87
2018-05-04T01:51:40.981Z,70.93
2018-05-04T01:54:08.409Z,72.79
2018-05-04T01:56:36.845Z,71.53
2018-05-04T01:59:04.266Z,72.04
2018-05-04T02:01:31.715Z,71.59
2018-05-04T02:04:00.101Z,73.62
2018-05-04T02:06:27.558Z,74.77
2018-05-04T02:08:54.984Z,75.11
2018-05-04T02:11:22.433Z,75.50
2018-05-04T02:13:51.794Z,75.16
2018-05-04T02:16:19.242Z,74.99
2018-05-04T02:18:47.610Z,75.97
2018-05-04T02:21:16.986Z,74.61
2018-05-04T02:23:44.436Z,74.55
2018-05-04T02:26:11.863Z,73.92
2018-05-04T02:28:39.326Z,74.67
2018-05-04T02:31:06.752Z,73.44
2018-05-04T02:33:34.197Z,72.81
2018-05-04T02:36:02.574Z,74.38
2018-05-04T02:38:30.036Z,74.67
2018-05-04T02:40:58.410Z,73.79
2018-05-04T02:43:27.797Z,72.18
2018-05-04T02:45:55.226Z,72.51
2018-05-04T02:48:23.677Z,74.69
2018-05-04T02:50:51.111Z,74.01
2018-05-04T02:53:18.573Z,74.31
2018-05-04T02:55:46.939Z,74.75
2018-05-04T02:58:14.404Z,73.38
2018-05-04T03:00:42.770Z,73.89
2018-05-04T03:03:10.240Z,73.71
2018-05-04T03:05:37.665Z,75.51
2018-05-04T03:08:05.084Z,74.91
2018-05-04T03:10:32.537Z,74.65
2018-05-04T03:12:59.970Z,74.31
2018-05-04T03:15:27.422Z,74.16
2018-05-04T03:17:54.841Z,75.55
2018-05-04T03:20:22.296Z,74.10
2018-05-04T03:22:49.730Z,73.89
2018-05-04T03:25:17.177Z,73.24
2018-05-04T03:27:44.604Z,76.30
2018-05-04T03:30:12.075Z,75.06
2018-05-04T03:32:39.489Z,74.40
2018-05-04T03:35:06.937Z,74.95
2018-05-04T03:37:34.361Z,75.55
2018-05-04T03:40:01.806Z,75.69
2018-05-04T03:42:29.225Z,75.29
2018-05-04T03:44:57.629Z,74.07
2018-05-04T03:47:25.084Z,73.63
2018-05-04T03:49:52.511Z,72.96
2018-05-04T03:52:19.950Z,72.83
2018-05-04T03:54:47.380Z,73.35
2018-05-04T03:57:30.427Z,74.37
2018-05-04T04:00:09.517Z,75.83
2018-05-04T04:02:48.698Z,74.26
2018-05-04T04:05:17.098Z,74.04
2018-05-04T04:07:44.538Z,74.77
2018-05-04T04:10:11.971Z,74.60
2018-05-04T04:12:39.473Z,74.05
2018-05-04T04:15:06.859Z,73.33
2018-05-04T04:17:34.314Z,72.06
2018-05-04T04:20:01.734Z,70.87
2018-05-04T04:22:29.218Z,71.71
2018-05-04T04:24:56.648Z,70.92
2018-05-04T04:27:24.070Z,69.97
2018-05-04T04:29:51.514Z,69.84
2018-05-04T04:32:18.939Z,70.69
2018-05-04T04:34:47.327Z,71.48
2018-05-04T04:37:14.737Z,70.25
2018-05-04T04:39:42.189Z,70.30
2018-05-04T04:42:09.615Z,68.90
2018-05-04T04:44:37.051Z,67.51
2018-05-04T04:47:04.458Z,66.16
2018-05-04T04:49:31.904Z,67.40
2018-05-04T04:51:59.320Z,67.76
2018-05-04T04:54:26.757Z,68.23
2018-05-04T04:56:54.186Z,67.88
2018-05-04T04:59:21.622Z,68.30
2018-05-04T05:01:49.235Z,67.72
2018-05-04T05:04:16.600Z,67.80
2018-05-04T05:06:44.018Z,66.20
2018-05-04T05:09:11.525Z,64.86
2018-05-04T05:11:38.929Z,65.26
2018-05-04T05:14:06.345Z,65.50
2018-05-04T05:16:33.902Z,64.47
2018-05-04T05:19:01.315Z,65.00
2018-05-04T05:21:28.754Z,64.93
2018-05-04T05:23:56.257Z,64.50
2018-05-04T05:26:23.711Z,63.70
2018-05-04T05:28:51.176Z,62.92
2018-05-04T05:31:18.613Z,62.91
2018-05-04T05:33:46.035Z,63.29
2018-05-04T05:36:13.473Z,61.96
2018-05-04T05:38:40.898Z,61.60
2018-05-04T05:41:08.333Z,62.30
2018-05-04T05:43:35.759Z,60.39
2018-05-04T05:46:03.200Z,59.57
2018-05-04T05:48:30.612Z,58.44
2018-05-04T05:50:58.090Z,57.67
2018-05-04T05:53:25.496Z,57.79
2018-05-04T05:55:52.990Z,58.09
2018-05-04T05:58:20.397Z,57.96
2018-05-04T06:00:47.810Z,57.42
2018-05-04T06:03:15.249Z,56.64
2018-05-04T06:05:42.714Z,56.20
2018-05-04T06:08:10.180Z,56.09
2018-05-04T06:10:37.592Z,55.65
2018-05-04T06:13:05.033Z,54.96
2018-05-04T06:15:32.459Z,54.23
2018-05-04T06:17:59.903Z,54.60
2018-05-04T06:20:27.313Z,53.83
2018-05-04T06:22:54.761Z,53.50
2018-05-04T06:25:22.180Z,53.05
2018-05-04T06:27:49.625Z,52.50
2018-05-04T06:30:17.037Z,52.12
2018-05-04T06:32:44.477Z,53.01
2018-05-04T06:35:11.889Z,53.48
2018-05-04T06:37:39.312Z,52.88
2018-05-04T06:40:06.749Z,51.26
2018-05-04T06:42:34.165Z,50.70
2018-05-04T06:45:01.621Z,49.76
2018-05-04T06:47:29.029Z,49.74
2018-05-04T06:49:56.474Z,49.26
2018-05-04T06:52:23.889Z,49.36
2018-05-04T06:54:51.330Z,48.26
2018-05-04T06:57:18.741Z,46.85
2018-05-04T06:59:46.193Z,46.84
2018-05-04T07:02:13.710Z,46.00
2018-05-04T07:04:41.169Z,46.28
2018-05-04T07:07:08.627Z,47.67
2018-05-04T07:09:36.037Z,46.50
2018-05-04T07:12:03.541Z,46.06
2018-05-04T07:14:30.958Z,43.82
2018-05-04T07:16:58.414Z,44.08
2018-05-04T07:19:25.829Z,44.46
2018-05-04T07:21:53.273Z,44.33
2018-05-04T07:24:20.681Z,44.03
2018-05-04T07:26:48.139Z,44.38
2018-05-04T07:29:15.563Z,44.65
2018-05-04T07:31:43.018Z,44.13
2018-05-04T07:34:10.438Z,42.57
2018-05-04T07:36:37.883Z,41.66
2018-05-04T07:39:06.200Z,41.16
2018-05-04T07:41:33.635Z,41.05
2018-05-04T07:44:01.050Z,42.60
2018-05-04T07:46:28.501Z,42.72
2018-05-04T07:48:55.998Z,42.07
2018-05-04T07:51:23.462Z,41.41
2018-05-04T07:53:50.901Z,41.77
2018-05-04T07:56:42.264Z,42.25
2018-05-04T07:59:09.673Z,43.49
2018-05-04T08:01:37.134Z,42.68
2018-05-04T08:04:04.574Z,43.51
2018-05-04T08:06:31.986Z,45.25
2018-05-04T08:08:59.425Z,44.87
2018-05-04T08:11:26.852Z,44.85
2018-05-04T08:13:54.293Z,45.66
2018-05-04T08:16:22.666Z,46.88
2018-05-04T08:18:50.109Z,47.42
2018-05-04T08:21:17.535Z,46.20
2018-05-04T08:23:44.969Z,44.73
2018-05-04T08:26:12.393Z,44.24
2018-05-04T08:28:39.855Z,44.47
2018-05-04T08:31:07.269Z,45.66
2018-05-04T08:33:35.772Z,45.82
2018-05-04T08:36:03.145Z,44.41
2018-05-04T08:38:30.602Z,43.87
2018-05-04T08:40:58.020Z,44.37
2018-05-04T08:43:26.459Z,43.30
2018-05-04T08:45:53.931Z,41.07
2018-05-04T08:48:21.460Z,41.76
2018-05-04T08:50:48.809Z,43.47
2018-05-04T08:53:17.185Z,43.86
2018-05-04T08:55:44.633Z,43.04
2018-05-04T08:58:13.017Z,40.44
2018-05-04T09:00:40.452Z,39.02
2018-05-04T09:03:08.882Z,38.00
2018-05-04T09:05:36.343Z,39.49
2018-05-04T09:08:03.833Z,40.85
2018-05-04T09:10:31.273Z,38.76
2018-05-04T09:12:59.597Z,39.11
2018-05-04T09:15:27.030Z,38.77
2018-05-04T09:17:54.442Z,38.97
2018-05-04T09:20:21.873Z,38.29
2018-05-04T09:22:49.287Z,38.90
2018-05-04T09:25:16.783Z,39.00
2018-05-04T09:27:44.181Z,38.24
2018-05-04T09:30:11.623Z,39.54
2018-05-04T09:32:39.038Z,38.85
2018-05-04T09:35:06.474Z,37.76
2018-05-04T09:37:34.061Z,36.79
2018-05-04T09:40:01.490Z,38.76
2018-05-04T09:42:28.917Z,39.33
2018-05-04T09:44:56.338Z,40.49
2018-05-04T09:47:23.780Z,40.09
2018-05-04T09:49:51.282Z,39.13
2018-05-04T09:52:18.814Z,39.23
2018-05-04T09:54:46.274Z,39.64
2018-05-04T09:57:13.706Z,39.97
2018-05-04T09:59:41.142Z,38.89
2018-05-04T10:02:08.578Z,39.03
2018-05-04T10:04:36.905Z,39.65
2018-05-04T10:07:04.351Z,40.08
2018-05-04T10:09:31.762Z,37.13
2018-05-04T10:11:59.175Z,37.07
2018-05-04T10:14:26.613Z,36.86
2018-05-04T10:16:54.025Z,35.88
2018-05-04T10:19:21.461Z,36.45
2018-05-04T10:21:49.040Z,36.58
2018-05-04T10:24:16.469Z,34.51
2018-05-04T10:26:44.054Z,34.32
2018-05-04T10:29:11.493Z,34.54
2018-05-04T10:31:38.901Z,34.18
2018-05-04T10:34:06.338Z,34.81
2018-05-04T10:36:35.690Z,34.54
2018-05-04T10:39:04.134Z,35.57
2018-05-04T10:41:31.523Z,36.54
2018-05-04T10:43:58.958Z,38.24
2018-05-04T10:46:26.378Z,39.25
2018-05-04T10:51:45.834Z,36.95
2018-05-04T10:54:15.271Z,35.41
2018-05-04T10:56:42.669Z,36.48
2018-05-04T10:59:11.101Z,35.44
2018-05-04T11:01:38.533Z,36.37
2018-05-04T11:04:07.953Z,36.54
2018-05-04T11:06:35.389Z,37.06
2018-05-04T11:09:03.715Z,36.60
2018-05-04T11:11:31.158Z,36.97
2018-05-04T11:13:58.614Z,36.67
2018-05-04T11:16:27.080Z,37.13
2018-05-04T11:18:56.468Z,36.23
2018-05-04T11:21:23.902Z,37.77
2018-05-04T11:23:51.315Z,40.71
2018-05-04T11:26:18.765Z,41.08
2018-05-04T11:28:46.194Z,39.74
2018-05-04T11:31:13.780Z,38.14
2018-05-04T11:33:41.198Z,39.83
2018-05-04T11:36:10.670Z,39.95
2018-05-04T11:38:38.081Z,39.04
2018-05-04T11:41:06.540Z,38.30
2018-05-04T11:43:37.886Z,38.77
2018-05-04T11:46:05.381Z,38.00
2018-05-04T11:48:32.800Z,38.63
2018-05-04T11:51:07.625Z,36.86
2018-05-04T11:53:35.036Z,37.14
2018-05-04T11:56:06.365Z,38.10
2018-05-04T11:58:33.860Z,37.10
2018-05-04T12:01:01.388Z,37.08
2018-05-04T12:03:28.797Z,35.75
2018-05-04T12:05:56.237Z,38.43
2018-05-04T12:08:23.686Z,36.53
2018-05-04T12:10:55.140Z,35.03
2018-05-04T12:13:22.510Z,35.07
2018-05-04T12:15:49.927Z,34.89
2018-05-04T12:18:18.281Z,34.65
2018-05-04T12:20:45.850Z,34.75
2018-05-04T12:23:13.410Z,35.43
2018-05-04T12:25:40.833Z,35.16
2018-05-04T12:28:08.265Z,34.74
2018-05-04T12:30:35.684Z,35.38
2018-05-04T12:33:03.237Z,34.87
2018-05-04T12:35:30.652Z,34.66
2018-05-04T12:37:58.078Z,35.77
2018-05-04T12:40:25.493Z,35.79
2018-05-04T12:42:53.985Z,34.73
2018-05-04T12:45:21.410Z,35.48
2018-05-04T12:47:49.005Z,35.31
2018-05-04T12:50:16.417Z,34.00
2018-05-04T12:52:43.834Z,34.55
2018-05-04T12:55:11.266Z,34.40
2018-05-04T12:57:38.689Z,34.29
2018-05-04T13:00:06.132Z,34.18
2018-05-04T13:02:33.554Z,32.75
2018-05-04T13:05:01.037Z,33.69
2018-05-04T13:07:28.457Z,33.61
2018-05-04T13:09:55.894Z,33.43
2018-05-04T13:12:23.317Z,35.53
2018-05-04T13:14:50.754Z,34.65
2018-05-04T13:17:18.227Z,34.72
2018-05-04T13:19:46.542Z,33.06
2018-05-04T13:22:13.982Z,32.89
2018-05-04T13:24:41.414Z,33.22
2018-05-04T13:27:08.830Z,32.80
2018-05-04T13:29:36.270Z,33.99
2018-05-04T13:32:03.674Z,31.01
2018-05-04T13:34:32.226Z,31.27
2018-05-04T13:36:59.666Z,30.18
2018-05-04T13:39:27.091Z,28.68
2018-05-04T13:41:54.589Z,27.47
2018-05-04T13:44:22.022Z,24.80
2018-05-04T13:46:49.493Z,23.21
2018-05-04T13:49:16.914Z,23.23
2018-05-04T13:51:45.247Z,21.57
2018-05-04T13:54:12.686Z,20.29
2018-05-04T13:56:40.134Z,18.18
2018-05-04T13:59:07.542Z,17.36
2018-05-04T14:01:34.978Z,16.83
2018-05-04T14:04:02.395Z,18.08
2018-05-04T14:06:29.835Z,18.38
2018-05-04T14:08:58.210Z,16.78
2018-05-04T14:11:25.645Z,15.90
2018-05-04T14:13:53.764Z,15.11
2018-05-04T14:16:21.197Z,15.13
2018-05-04T14:18:48.683Z,14.79
2018-05-04T14:21:17.072Z,13.67
2018-05-04T14:23:44.520Z,13.86
2018-05-04T14:26:11.973Z,14.17
2018-05-04T14:28:40.350Z,16.56
2018-05-04T14:31:07.765Z,16.87
2018-05-04T14:33:35.212Z,16.81
2018-05-04T14:36:02.642Z,16.30
2018-05-04T14:38:30.077Z,17.02
2018-05-04T14:40:57.521Z,15.65
2018-05-04T14:43:24.997Z,12.64
2018-05-04T14:45:53.333Z,11.42
2018-05-04T14:48:20.773Z,10.11
2018-05-04T14:50:48.197Z,10.24
2018-05-04T14:53:16.669Z,10.07
2018-05-04T14:55:44.085Z,9.94
2018-05-04T14:58:11.522Z,9.29
2018-05-04T15:00:39.044Z,8.84
2018-05-04T15:03:07.507Z,8.24
2018-05-04T15:05:34.919Z,7.81
2018-05-04T15:08:02.365Z,6.70
2018-05-04T15:10:29.777Z,8.47
2018-05-04T15:12:57.186Z,10.15
2018-05-04T15:15:24.625Z,7.76
2018-05-04T15:17:52.022Z,7.48
2018-05-04T15:20:19.457Z,6.15
2018-05-04T15:22:46.877Z,6.54
2018-05-04T15:25:14.309Z,6.25
2018-05-04T15:27:41.717Z,6.77
2018-05-04T15:30:09.239Z,6.02
2018-05-04T15:32:36.649Z,6.48
2018-05-04T15:35:05.084Z,7.53
2018-05-04T15:37:32.498Z,6.39
2018-05-04T15:40:00.071Z,5.80
2018-05-04T15:42:28.424Z,5.15
2018-05-04T15:44:55.853Z,4.31
2018-05-04T15:47:23.272Z,5.32
2018-05-04T15:49:50.831Z,5.02
2018-05-04T15:52:20.153Z,5.46
2018-05-04T15:54:47.595Z,5.41
2018-05-04T15:57:15.006Z,5.70
2018-05-04T15:59:42.423Z,4.90
2018-05-04T16:02:09.854Z,4.10
2018-05-04T16:04:37.723Z,5.20
2018-05-04T16:07:05.179Z,4.72
2018-05-04T16:09:34.367Z,4.90
2018-05-04T16:12:01.818Z,4.48
2018-05-04T16:14:30.288Z,6.04
2018-05-04T16:16:57.724Z,6.01
2018-05-04T16:19:25.145Z,5.54
2018-05-04T16:21:52.604Z,5.75
2018-05-04T16:24:20.090Z,6.22
2018-05-04T16:26:47.518Z,5.84
2018-05-04T16:29:14.934Z,6.06
2018-05-04T16:31:42.392Z,7.18
2018-05-04T16:34:09.809Z,7.73
2018-05-04T16:36:44.143Z,8.68
2018-05-04T16:39:11.614Z,7.94
2018-05-04T16:41:39.087Z,7.68
2018-05-04T16:47:14.168Z,6.52
2018-05-04T16:49:41.602Z,7.40
2018-05-04T16:52:11.416Z,8.67
2018-05-04T16:54:38.867Z,9.59
2018-05-04T16:57:06.283Z,8.82
2018-05-04T16:59:39.768Z,9.33
2018-05-04T17:02:07.203Z,8.91
2018-05-04T17:22:33.824Z,32.59
2018-05-04T17:25:01.275Z,32.38
2018-05-04T17:27:29.705Z,33.62
2018-05-04T17:29:57.158Z,34.47
2018-05-04T17:32:24.578Z,35.22
2018-05-04T17:52:32.333Z,36.87
2018-05-04T17:54:59.914Z,37.56
2018-05-04T17:57:27.335Z,37.79
2018-05-04T17:59:55.724Z,37.99
2018-05-04T18:02:23.164Z,37.93
2018-05-04T18:04:50.619Z,39.24
2018-05-04T18:07:19.874Z,38.82
2018-05-04T18:09:47.315Z,39.08
2018-05-04T18:15:08.068Z,39.43
2018-05-04T18:17:51.973Z,40.08
2018-05-04T18:23:12.241Z,40.76
2018-05-04T18:34:28.977Z,41.05
2018-05-04T18:36:56.501Z,41.40
2018-05-04T18:39:24.444Z,41.41
2018-05-04T18:41:51.885Z,42.09
2018-05-04T18:44:20.031Z,41.56
2018-05-04T18:46:47.491Z,42.87
2018-05-04T18:52:07.399Z,43.81
2018-05-04T18:54:34.822Z,42.87
2018-05-04T18:57:02.307Z,43.43
2018-05-04T19:53:17.537Z,47.59
2018-05-04T19:55:44.977Z,47.01
2018-05-04T19:58:12.407Z,47.05
2018-05-04T20:00:39.843Z,48.61
2018-05-04T20:03:08.273Z,48.17
2018-05-04T20:05:35.710Z,48.73
2018-05-04T20:08:03.128Z,50.74
2018-05-04T20:10:30.613Z,49.66
2018-05-04T20:12:59.081Z,49.98
2018-05-04T20:15:26.537Z,49.79
2018-05-04T20:17:54.941Z,50.45
2018-05-04T20:20:22.385Z,50.18
2018-05-04T20:22:56.156Z,50.69
2018-05-04T20:28:24.286Z,51.49
2018-05-04T20:30:51.758Z,52.00
2018-05-04T20:33:19.173Z,51.48
2018-05-04T20:35:46.632Z,51.01
2018-05-04T20:38:14.066Z,52.20
2018-05-04T20:40:41.482Z,51.95
2018-05-04T20:43:08.929Z,51.16
2018-05-04T20:45:36.346Z,52.32
2018-05-04T20:48:03.785Z,52.51
2018-05-04T20:50:31.201Z,52.58
2018-05-04T20:52:58.657Z,52.64
2018-05-04T20:55:26.451Z,52.16
2018-05-04T20:57:57.307Z,53.26
2018-05-04T21:00:24.714Z,53.41
2018-05-04T21:02:53.062Z,53.04
2018-05-04T21:05:20.475Z,52.54
2018-05-04T21:07:47.919Z,53.80
2018-05-04T21:10:15.327Z,53.78
2018-05-04T21:12:42.769Z,54.15
2018-05-04T21:15:10.187Z,53.21
2018-05-04T21:17:37.642Z,53.98
2018-05-04T21:20:05.093Z,52.87
2018-05-04T21:22:32.558Z,53.42
2018-05-04T21:25:01.878Z,54.85
2018-05-04T21:27:29.296Z,55.01
2018-05-04T21:29:56.738Z,56.45
2018-05-04T21:32:24.155Z,56.67
2018-05-04T21:34:51.599Z,55.73
2018-05-04T21:37:19.010Z,56.08
2018-05-04T21:39:46.445Z,57.00
2018-05-04T21:42:13.857Z,56.94
2018-05-04T21:44:41.349Z,58.31
2018-05-04T21:47:08.717Z,58.02
2018-05-04T21:49:36.162Z,58.60
2018-05-04T21:52:04.493Z,59.00
2018-05-04T21:54:31.987Z,59.23
2018-05-04T21:56:59.350Z,59.17
2018-05-04T21:59:26.790Z,58.49
2018-05-04T22:01:54.197Z,58.24
2018-05-04T22:04:21.643Z,58.68
2018-05-04T22:06:49.061Z,58.99
2018-05-04T22:09:16.501Z,58.34
2018-05-04T22:11:43.913Z,58.93
2018-05-04T22:14:11.326Z,58.98
2018-05-04T22:16:38.767Z,60.14
2018-05-04T22:19:06.178Z,59.76
2018-05-04T22:21:33.629Z,59.48
2018-05-04T22:24:01.942Z,59.55
2018-05-04T22:26:29.413Z,59.80
2018-05-04T22:29:00.370Z,60.03
2018-05-04T22:31:29.668Z,60.47
2018-05-04T22:33:58.006Z,60.86
2018-05-04T22:36:25.453Z,60.18
2018-05-04T22:38:53.406Z,59.79
2018-05-04T22:41:21.774Z,61.59
2018-05-04T22:43:50.082Z,60.82
2018-05-04T22:46:18.373Z,61.19
2018-05-04T22:48:45.791Z,60.56
2018-05-04T22:51:13.229Z,60.53
2018-05-04T22:53:42.565Z,60.41
2018-05-04T22:56:10.069Z,60.78
2018-05-04T22:58:37.497Z,60.43
2018-05-04T23:01:04.946Z,60.44
2018-05-04T23:03:32.372Z,60.88
2018-05-04T23:06:00.567Z,59.83
2018-05-04T23:08:28.158Z,60.66
2018-05-04T23:10:55.572Z,61.44
2018-05-04T23:13:23.009Z,60.93
2018-05-04T23:15:50.423Z,60.88
2018-05-04T23:18:17.865Z,62.39
2018-05-04T23:20:45.297Z,62.00
2018-05-04T23:23:13.749Z,61.62
2018-05-04T23:25:41.179Z,62.17
2018-05-04T23:28:09.536Z,61.64
2018-05-04T23:30:36.957Z,62.09
2018-05-04T23:33:04.401Z,62.59
2018-05-04T23:35:31.850Z,62.51
2018-05-04T23:37:59.304Z,62.95
2018-05-04T23:40:26.721Z,63.37
2018-05-04T23:42:54.161Z,62.94
2018-05-04T23:45:21.578Z,63.10
2018-05-04T23:47:49.022Z,63.35
2018-05-04T23:50:16.433Z,63.57
2018-05-04T23:52:43.881Z,64.15
2018-05-04T23:55:11.310Z,64.62
2018-05-04T23:57:38.714Z,64.87
